Time;durP1;ratioP1;P1;durP2;ratioP2;P2;SDS_P1;SDS_P2;PMS_P1;PMS_P2;Temp;Humidity;BMP_temperature;BMP_pressure;BME280_temperature;BME280_humidity;BME280_pressure;Samples;Min_cycle;Max_cycle;Signal;HPM_P1;HPM_P2
2023/02/12 00:01:14;;;;;;;13.38;5.93;;;;;;;0.96;89.15;101110.00;6246504;28;20056;-75
2023/02/12 00:04:15;;;;;;;15.80;6.97;;;;;;;0.97;88.89;101110.88;6245166;28;20393;-75
2023/02/12 00:07:24;;;;;;;11.77;5.28;;;;;;;0.97;88.76;101108.31;6245188;28;20051;-75
2023/02/12 00:10:25;;;;;;;14.45;5.47;;;;;;;1.00;88.48;101111.69;6246136;28;20045;-75
2023/02/12 00:13:29;;;;;;;12.18;7.20;;;;;;;1.05;88.18;101115.94;6243829;28;20108;-79
2023/02/12 00:16:30;;;;;;;14.93;7.38;;;;;;;1.05;87.93;101115.94;6245388;28;20048;-79
2023/02/12 00:19:31;;;;;;;11.52;5.50;;;;;;;1.05;88.16;101124.53;6245112;28;20045;-79
2023/02/12 00:22:32;;;;;;;11.43;6.68;;;;;;;1.07;88.72;101127.97;6246504;28;20066;-79
2023/02/12 00:25:33;;;;;;;9.95;5.85;;;;;;;1.09;88.90;101126.22;6244993;28;20045;-79
2023/02/12 00:28:34;;;;;;;15.20;7.75;;;;;;;1.07;89.50;101135.66;6245118;28;20046;-75
2023/02/12 00:31:35;;;;;;;10.77;5.88;;;;;;;1.00;89.72;101147.66;6244822;28;20046;-75
2023/02/12 00:34:36;;;;;;;12.38;6.40;;;;;;;0.96;90.76;101150.25;6244563;28;20576;-79
2023/02/12 00:37:37;;;;;;;13.98;6.95;;;;;;;0.98;90.72;101153.69;6246241;28;20045;-75
2023/02/12 00:40:38;;;;;;;14.30;7.55;;;;;;;0.96;90.72;101140.84;6244648;28;20058;-79
2023/02/12 00:43:38;;;;;;;13.20;6.80;;;;;;;1.00;90.78;101151.97;6244767;28;20562;-75
2023/02/12 00:46:39;;;;;;;11.98;7.28;;;;;;;1.06;90.61;101151.09;6244501;28;20529;-75
2023/02/12 00:49:40;;;;;;;16.90;6.80;;;;;;;1.09;90.28;101154.50;6245415;28;20053;-79
2023/02/12 00:52:42;;;;;;;17.08;7.10;;;;;;;1.06;90.07;101151.09;6245938;28;20049;-79
2023/02/12 00:55:43;;;;;;;14.13;7.07;;;;;;;1.06;89.97;101135.66;6244606;28;20052;-79
2023/02/12 00:58:43;;;;;;;13.80;6.85;;;;;;;1.11;89.82;101133.91;6245215;28;20045;-75
2023/02/12 01:01:44;;;;;;;12.48;7.57;;;;;;;1.07;90.17;101140.81;6244435;28;20056;-79
2023/02/12 01:04:47;;;;;;;18.45;9.05;;;;;;;1.08;90.42;101145.06;6245489;28;20504;-75
2023/02/12 01:07:50;;;;;;;20.98;7.82;;;;;;;1.10;90.02;101151.06;6245160;28;20397;-75
2023/02/12 01:10:57;;;;;;;13.75;6.63;;;;;;;1.09;90.15;101163.91;6245115;28;20052;-79
2023/02/12 01:13:58;;;;;;;14.02;5.57;;;;;;;1.18;89.65;101162.16;6243600;28;20121;-76
2023/02/12 01:16:59;;;;;;;10.48;5.90;;;;;;;1.16;89.67;101158.75;6245122;28;20404;-79
2023/02/12 01:20:00;;;;;;;13.50;6.15;;;;;;;1.17;89.39;101157.91;6244996;28;20041;-79
2023/02/12 01:23:01;;;;;;;13.77;5.85;;;;;;;1.24;88.69;101168.16;6245029;28;20135;-79
2023/02/12 01:26:03;;;;;;;18.45;6.82;;;;;;;1.20;88.72;101164.75;6244171;28;20381;-79
2023/02/12 01:29:06;;;;;;;15.35;6.60;;;;;;;1.22;89.19;101170.72;6243761;28;20469;-79
2023/02/12 01:32:07;;;;;;;10.10;6.93;;;;;;;1.24;88.73;101170.72;6243753;28;20515;-79
2023/02/12 01:35:09;;;;;;;13.27;7.50;;;;;;;1.23;89.22;101180.13;6267692;28;20061;-78
2023/02/12 01:38:10;;;;;;;15.07;6.60;;;;;;;1.18;89.52;101175.03;6252036;28;20045;-79
2023/02/12 01:41:14;;;;;;;12.38;6.45;;;;;;;1.15;90.19;101180.19;6251847;28;20041;-78
2023/02/12 01:44:24;;;;;;;12.35;6.50;;;;;;;1.18;89.85;101167.31;6251697;28;20049;-79
2023/02/12 01:47:27;;;;;;;14.90;7.20;;;;;;;1.18;90.01;101187.03;6251653;28;20049;-79
2023/02/12 01:50:28;;;;;;;12.40;6.50;;;;;;;1.14;90.29;101183.59;6251066;28;20193;-75
2023/02/12 01:53:39;;;;;;;12.30;6.50;;;;;;;1.16;90.20;101181.03;6250520;28;20053;-75
2023/02/12 01:56:41;;;;;;;12.43;6.80;;;;;;;1.14;90.36;101180.19;6251175;28;20041;-75
2023/02/12 01:59:44;;;;;;;16.53;7.03;;;;;;;1.18;90.49;101174.19;6268962;28;20429;-75
2023/02/12 02:02:50;;;;;;;12.75;6.28;;;;;;;1.19;90.61;101173.28;6268410;28;20053;-75
2023/02/12 02:06:07;;;;;;;10.32;6.38;;;;;;;1.23;89.54;101169.84;6251267;28;20041;-79
2023/02/12 02:09:08;;;;;;;10.50;5.65;;;;;;;1.18;90.07;101174.19;6243593;28;20045;-78
2023/02/12 02:15:30;;;;;;;9.05;5.45;;;;;;;1.25;89.78;101175.00;6268428;28;20041;-75
2023/02/12 02:18:51;;;;;;;21.10;6.57;;;;;;;1.26;90.39;101175.00;6251011;28;20101;-79
2023/02/12 02:22:13;;;;;;;17.65;6.75;;;;;;;1.20;90.76;101181.00;6250012;28;20063;-79
2023/02/12 02:25:32;;;;;;;9.37;5.83;;;;;;;1.21;90.56;101184.44;6250882;28;20038;-77
2023/02/12 02:29:11;;;;;;;18.00;6.00;;;;;;;1.22;90.95;101185.31;6268196;28;20074;-75
2023/02/12 02:32:17;;;;;;;10.35;5.38;;;;;;;1.19;90.47;101181.88;6250569;28;20477;-75
2023/02/12 02:35:46;;;;;;;13.20;6.53;;;;;;;1.22;90.77;101182.75;6250511;28;20424;-75
2023/02/12 02:39:37;;;;;;;13.30;6.60;;;;;;;1.22;90.88;101193.03;6268429;28;20041;-75
2023/02/12 02:42:42;;;;;;;11.50;5.30;;;;;;;1.22;90.87;101188.72;6267990;28;20057;-78
2023/02/12 02:45:54;;;;;;;17.55;5.97;;;;;;;1.23;90.54;101187.84;6250505;28;20511;-76
2023/02/12 02:49:03;;;;;;;22.55;8.52;;;;;;;1.22;90.05;101182.75;6250274;28;20042;-76
2023/02/12 02:52:13;;;;;;;14.90;7.20;;;;;;;1.23;90.26;101194.72;6268123;28;20109;-79
2023/02/12 02:55:17;;;;;;;13.77;6.22;;;;;;;1.20;90.54;101193.03;6250380;28;20070;-79
2023/02/12 02:58:43;;;;;;;15.05;7.65;;;;;;;1.11;91.25;101209.34;6267886;28;20041;-75
2023/02/12 03:02:05;;;;;;;15.25;7.25;;;;;;;1.01;92.24;101207.66;6250042;28;20060;-75
2023/02/12 03:05:30;;;;;;;10.60;5.93;;;;;;;1.05;92.02;101217.06;6251623;28;20056;-75
2023/02/12 03:08:40;;;;;;;13.60;6.97;;;;;;;1.11;92.24;101229.91;6254043;28;20037;-79
2023/02/12 03:11:42;;;;;;;16.40;7.07;;;;;;;1.04;92.46;101222.22;6271988;28;20041;-75
2023/02/12 03:15:07;;;;;;;12.63;7.13;;;;;;;1.06;92.24;101223.06;6271787;28;20085;-75
2023/02/12 03:18:14;;;;;;;9.82;6.13;;;;;;;1.11;91.63;101227.34;6254452;28;20052;-78
2023/02/12 03:21:20;;;;;;;13.93;7.43;;;;;;;1.06;92.13;101228.22;6253390;28;20033;-76
2023/02/12 03:24:40;;;;;;;10.63;6.60;;;;;;;1.09;91.70;101226.50;6271689;28;20045;-79
2023/02/12 03:28:24;;;;;;;15.77;7.65;;;;;;;1.13;91.44;101235.91;6254519;28;20041;-79
2023/02/12 03:31:57;;;;;;;13.80;7.10;;;;;;;1.07;91.50;101233.34;6254406;28;20081;-76
2023/02/12 03:35:08;;;;;;;;;;;;;;;1.09;91.63;101234.19;6210845;28;20057;-75
2023/02/12 03:38:36;;;;;;;10.63;5.35;;;;;;;1.11;91.20;101231.59;6254129;28;19925;-79
2023/02/12 03:41:48;;;;;;;15.52;6.13;;;;;;;1.12;91.40;101239.31;6254039;28;20044;-79
2023/02/12 03:44:58;;;;;;;12.15;5.15;;;;;;;1.13;91.54;101235.91;6253834;28;20078;-75
2023/02/12 03:48:02;;;;;;;10.68;6.22;;;;;;;1.14;91.57;101237.59;6254003;28;20049;-75
2023/02/12 03:51:27;;;;;;;14.10;6.63;;;;;;;1.09;92.16;101251.31;6253204;28;20052;-79
2023/02/12 03:54:28;;;;;;;15.20;7.45;;;;;;;1.10;92.44;101255.63;6271669;28;20137;-76
2023/02/12 03:57:34;;;;;;;11.65;5.65;;;;;;;1.06;92.40;101259.91;6271871;28;20053;-78
2023/02/12 04:00:37;;;;;;;13.75;7.53;;;;;;;1.05;92.41;101270.19;6271255;28;20041;-75
2023/02/12 04:03:40;;;;;;;18.35;7.05;;;;;;;1.06;92.36;101280.47;6253778;28;20102;-79
2023/02/12 04:06:41;;;;;;;10.17;5.77;;;;;;;1.08;92.11;101289.03;6253643;28;20052;-75
2023/02/12 04:09:42;;;;;;;13.85;7.03;;;;;;;1.03;91.87;101293.34;6270708;28;20377;-75
2023/02/12 04:13:02;;;;;;;12.80;6.60;;;;;;;1.01;91.74;101310.47;6253206;28;20480;-78
2023/02/12 04:16:24;;;;;;;14.35;7.05;;;;;;;0.89;92.45;101311.34;6270720;28;20037;-78
2023/02/12 04:20:00;;;;;;;13.23;6.68;;;;;;;0.92;92.06;101308.75;6270803;28;20041;-75
2023/02/12 04:23:13;;;;;;;16.95;7.03;;;;;;;0.87;92.67;101313.06;6270799;28;20603;-74
2023/02/12 04:26:49;;;;;;;15.85;7.70;;;;;;;0.89;93.05;101318.19;6252249;28;20040;-75
2023/02/12 04:30:28;;;;;;;12.80;6.82;;;;;;;0.96;92.50;101315.59;6270601;28;20065;-78
2023/02/12 04:33:38;;;;;;;20.02;6.95;;;;;;;0.95;92.17;101315.63;6270846;28;20053;-78
2023/02/12 04:36:49;;;;;;;13.70;7.45;;;;;;;0.88;92.16;101299.34;6271061;28;20045;-78
2023/02/12 04:39:52;;;;;;;15.48;7.05;;;;;;;0.89;92.11;101301.06;6271176;28;20064;-75
2023/02/12 04:42:53;;;;;;;14.45;7.28;;;;;;;0.89;92.09;101307.91;6252571;28;20056;-75
2023/02/12 04:45:53;;;;;;;18.88;9.98;;;;;;;0.93;91.82;101307.06;6270362;28;20045;-75
2023/02/12 04:48:58;;;;;;;19.75;9.68;;;;;;;0.95;91.74;101319.03;6252676;28;20094;-78
2023/02/12 04:51:58;;;;;;;15.32;7.70;;;;;;;0.97;91.41;101321.63;6253078;28;20045;-78
2023/02/12 04:54:59;;;;;;;22.63;8.18;;;;;;;1.02;91.28;101309.59;6270255;28;20133;-74
2023/02/12 04:58:03;;;;;;;19.13;8.57;;;;;;;1.01;91.48;101310.47;6252363;28;20093;-78
2023/02/12 05:01:03;;;;;;;17.35;8.57;;;;;;;1.07;90.98;101328.47;6269960;28;20037;-75
2023/02/12 05:04:07;;;;;;;19.17;10.38;;;;;;;1.06;90.65;101326.72;6252104;28;20064;-75
2023/02/12 05:07:10;;;;;;;26.15;11.13;;;;;;;1.08;89.92;101327.59;6270180;28;20045;-75
2023/02/12 05:10:11;;;;;;;18.33;8.13;;;;;;;1.04;90.58;101336.16;6270269;28;20044;-78
2023/02/12 05:13:12;;;;;;;15.50;8.55;;;;;;;1.06;90.34;101347.28;6269537;28;20041;-74
2023/02/12 05:16:13;;;;;;;14.73;7.93;;;;;;;1.06;90.35;101352.44;6251463;28;20117;-78
2023/02/12 05:19:14;;;;;;;20.27;10.05;;;;;;;1.06;90.73;101360.16;6269943;28;20037;-77
2023/02/12 05:22:15;;;;;;;25.98;11.40;;;;;;;0.86;92.42;101377.28;6269697;28;20048;-74
2023/02/12 05:25:15;;;;;;;17.23;9.43;;;;;;;0.72;93.60;101390.13;6251937;28;20116;-77
2023/02/12 05:28:16;;;;;;;22.08;8.98;;;;;;;0.71;94.56;101396.13;6268890;28;20065;-76
2023/02/12 05:31:18;;;;;;;16.65;7.60;;;;;;;0.47;95.51;101391.81;6251504;28;20076;-76
2023/02/12 05:34:19;;;;;;;18.42;8.40;;;;;;;0.67;95.57;101399.56;6251163;28;20057;-80
2023/02/12 05:37:20;;;;;;;20.58;10.45;;;;;;;0.58;95.87;101390.13;6269551;28;20048;-76
2023/02/12 05:40:21;;;;;;;12.48;7.95;;;;;;;0.62;94.89;101383.25;6251451;28;20078;-75
2023/02/12 05:43:24;;;;;;;16.05;8.55;;;;;;;0.75;93.99;101388.41;6269332;28;20056;-78
2023/02/12 05:46:25;;;;;;;17.20;8.10;;;;;;;0.60;95.01;101404.69;6269186;28;20056;-74
2023/02/12 05:49:26;;;;;;;14.57;7.38;;;;;;;0.58;95.59;101405.53;6251482;28;20045;-75
2023/02/12 05:52:27;;;;;;;16.30;8.02;;;;;;;0.50;96.50;101408.09;6250755;28;20045;-78
2023/02/12 05:55:28;;;;;;;18.13;8.00;;;;;;;0.66;96.04;101419.25;6269569;28;20049;-78
2023/02/12 05:58:28;;;;;;;20.40;8.82;;;;;;;0.44;97.89;101427.75;6265742;28;20090;-78
2023/02/12 06:01:41;;;;;;;16.20;8.63;;;;;;;0.45;98.42;101437.16;6251915;28;20051;-78
2023/02/12 06:04:42;;;;;;;17.08;7.93;;;;;;;0.42;99.32;101444.88;6268956;28;20534;-78
2023/02/12 06:07:45;;;;;;;12.75;7.32;;;;;;;0.35;99.95;101454.25;6251712;28;20041;-77
2023/02/12 06:10:46;;;;;;;12.68;6.18;;;;;;;0.38;99.69;101456.84;6251123;28;20499;-74
2023/02/12 06:13:47;;;;;;;22.63;10.07;;;;;;;0.36;100.00;101459.41;6254793;28;20071;-78
2023/02/12 06:16:49;;;;;;;22.98;7.40;;;;;;;0.47;99.51;101464.56;6244946;28;20045;-78
2023/02/12 06:19:50;;;;;;;9.38;6.00;;;;;;;0.45;98.62;101466.25;6231666;28;20048;-78
2023/02/12 06:22:51;;;;;;;13.30;5.97;;;;;;;0.59;97.53;101469.72;6268998;28;20098;-78
2023/02/12 06:25:55;;;;;;;13.73;7.15;;;;;;;0.52;97.73;101480.84;6251611;28;20045;-78
2023/02/12 06:28:56;;;;;;;9.88;6.10;;;;;;;0.64;96.99;101479.16;6251171;28;20456;-78
2023/02/12 06:31:57;;;;;;;12.85;7.07;;;;;;;0.70;95.82;101482.63;6251011;28;20044;-78
2023/02/12 06:34:58;;;;;;;13.77;7.15;;;;;;;0.71;94.81;101486.06;6267724;28;20053;-74
2023/02/12 06:37:58;;;;;;;12.98;6.78;;;;;;;0.77;94.83;101489.50;6253202;28;20094;-78
2023/02/12 06:41:03;;;;;;;18.08;7.28;;;;;;;0.76;93.62;101476.63;6272965;28;20045;-75
2023/02/12 06:44:05;;;;;;;13.35;6.47;;;;;;;0.72;94.21;101493.78;6271129;28;20083;-76
2023/02/12 06:47:08;;;;;;;20.38;9.15;;;;;;;0.80;94.00;101494.66;6271064;28;20119;-79
2023/02/12 06:50:09;;;;;;;13.70;7.78;;;;;;;0.93;93.02;101499.81;6272022;28;20053;-79
2023/02/12 06:53:10;;;;;;;20.80;8.68;;;;;;;0.73;93.40;101504.91;6255366;28;20067;-79
2023/02/12 06:56:12;;;;;;;17.87;6.57;;;;;;;0.77;92.32;101514.34;6255784;28;20717;-78
2023/02/12 06:59:15;;;;;;;14.57;6.72;;;;;;;0.90;92.56;101525.50;6272017;28;20391;-75
2023/02/12 07:02:16;;;;;;;10.30;6.53;;;;;;;0.89;92.19;101534.91;6262058;28;20046;-79
2023/02/12 07:05:17;;;;;;;15.98;7.25;;;;;;;0.95;92.59;101527.22;6232050;28;20091;-75
2023/02/12 07:08:17;;;;;;;11.73;6.10;;;;;;;1.11;91.64;101530.69;6230120;28;20044;-75
2023/02/12 07:11:23;;;;;;;14.65;7.15;;;;;;;1.12;91.34;101544.41;6258399;28;20048;-75
2023/02/12 07:14:27;;;;;;;13.85;7.03;;;;;;;1.02;91.56;101548.66;6272145;28;20066;-76
2023/02/12 07:17:30;;;;;;;16.92;6.85;;;;;;;1.09;90.76;101545.25;6232875;28;20614;-75
2023/02/12 07:20:33;;;;;;;11.52;5.90;;;;;;;1.22;89.12;101548.69;6229223;28;20091;-75
2023/02/12 07:23:37;;;;;;;14.05;6.40;;;;;;;1.13;89.52;101561.53;6247760;28;20106;-79
2023/02/12 07:26:39;;;;;;;19.90;7.82;;;;;;;1.15;89.09;101564.97;6246630;28;20044;-78
2023/02/12 07:29:40;;;;;;;15.05;6.80;;;;;;;1.45;88.25;101569.28;6246744;28;20052;-76
2023/02/12 07:32:41;;;;;;;16.50;6.85;;;;;;;1.39;87.71;101570.13;6259610;28;20072;-76
2023/02/12 07:35:42;;;;;;;9.48;6.38;;;;;;;1.52;85.96;101571.00;6271736;28;20511;-76
2023/02/12 07:38:43;;;;;;;15.25;8.30;;;;;;;1.47;87.34;101583.00;6271275;28;20098;-75
2023/02/12 07:41:44;;;;;;;16.77;8.10;;;;;;;1.48;86.62;101571.00;6271679;28;20049;-75
2023/02/12 07:44:47;;;;;;;16.35;8.90;;;;;;;1.61;86.16;101590.75;6254049;28;20060;-75
2023/02/12 07:47:51;;;;;;;14.57;7.25;;;;;;;1.48;85.98;101591.59;6271507;28;20052;-75
2023/02/12 07:50:52;;;;;;;13.65;6.80;;;;;;;1.75;85.17;101581.31;6246026;28;20096;-76
2023/02/12 07:53:54;;;;;;;20.13;8.07;;;;;;;1.80;84.04;101594.19;6229258;28;20041;-76
2023/02/12 07:56:55;;;;;;;16.77;8.80;;;;;;;1.96;84.28;101595.03;6267303;28;20045;-79
2023/02/12 07:59:56;;;;;;;25.33;7.53;;;;;;;1.93;83.18;101616.47;6271570;28;20362;-76
2023/02/12 08:02:59;;;;;;;20.90;8.50;;;;;;;2.03;82.72;101609.59;6237894;28;20085;-80
2023/02/12 08:05:59;;;;;;;13.60;7.32;;;;;;;2.12;82.67;101611.31;6229150;28;20049;-80
2023/02/12 08:09:03;;;;;;;22.90;10.48;;;;;;;2.18;81.02;101611.31;6246465;28;20446;-79
2023/02/12 08:12:04;;;;;;;13.23;6.60;;;;;;;2.25;80.85;101604.44;6245848;28;20125;-79
2023/02/12 08:15:05;;;;;;;17.25;9.27;;;;;;;2.33;81.61;101600.13;6246067;28;20041;-79
2023/02/12 08:18:06;;;;;;;25.58;12.02;;;;;;;2.39;81.47;101600.13;6228975;28;20477;-80
2023/02/12 08:32:31;;;;;;;29.67;15.45;;;;;;;3.36;75.28;101595.38;6394336;27;20378;-72
2023/02/12 08:35:34;;;;;;;23.38;12.75;;;;;;;3.43;74.77;101615.09;6394742;27;20043;-72
2023/02/12 08:38:36;;;;;;;21.00;11.60;;;;;;;3.02;76.33;101612.75;6394425;27;20039;-71
2023/02/12 08:41:37;;;;;;;23.10;11.82;;;;;;;3.28;76.66;101616.94;6394455;27;20071;-71
2023/02/12 08:44:39;;;;;;;28.73;12.27;;;;;;;3.80;74.93;101621.72;6391213;27;20100;-72
2023/02/12 08:47:40;;;;;;;18.17;10.18;;;;;;;3.45;76.28;101629.72;6384599;27;20437;-71
2023/02/12 08:50:41;;;;;;;14.65;8.15;;;;;;;3.39;78.62;101621.16;6388654;27;20046;-71
2023/02/12 08:53:44;;;;;;;23.77;10.25;;;;;;;3.48;76.64;101633.16;6387547;27;20121;-71
2023/02/12 08:56:45;;;;;;;;;;;;;;;3.89;74.86;101638.88;6393158;27;20039;-71
2023/02/12 08:59:48;;;;;;;18.80;7.65;;;;;;;3.63;77.00;101647.69;6392743;27;19920;-71
2023/02/12 09:02:48;;;;;;;16.55;8.80;;;;;;;4.01;75.73;101637.03;6387275;27;20549;-74
2023/02/12 09:05:52;;;;;;;14.95;8.23;;;;;;;4.31;74.19;101647.97;6379944;27;20039;-73
2023/02/12 09:08:54;;;;;;;20.58;9.38;;;;;;;4.44;73.19;101652.16;6392415;27;20049;-73
2023/02/12 09:11:54;;;;;;;13.90;9.25;;;;;;;4.36;73.99;101651.34;6378448;27;20065;-72
2023/02/12 09:14:55;;;;;;;13.75;8.48;;;;;;;4.50;73.05;101658.13;6390918;27;20035;-80
2023/02/12 09:18:02;;;;;;;14.95;9.23;;;;;;;4.79;71.64;101661.25;6392178;27;20043;-80
2023/02/12 09:21:10;;;;;;;12.55;6.80;;;;;;;5.28;71.23;101671.91;6387307;27;20036;-80
2023/02/12 09:24:11;;;;;;;10.18;5.75;;;;;;;5.31;70.36;101669.25;6366641;28;20035;-72
2023/02/12 09:27:11;;;;;;;15.25;5.82;;;;;;;5.49;69.76;101665.56;6389760;27;20164;-72
2023/02/12 09:30:13;;;;;;;10.43;6.60;;;;;;;5.86;69.38;101668.44;6392780;27;20080;-72
2023/02/12 09:33:14;;;;;;;13.60;6.10;;;;;;;5.63;69.66;101667.06;6376303;27;20162;-81
2023/02/12 09:36:17;;;;;;;15.32;6.53;;;;;;;5.60;69.37;101668.84;6358801;27;20445;-78
2023/02/12 09:39:18;;;;;;;17.65;7.63;;;;;;;5.76;69.44;101675.50;6372460;27;20098;-78
2023/02/12 09:42:43;;;;;;;14.52;8.18;;;;;;;5.98;69.73;101678.66;6373404;27;20538;-78
2023/02/12 09:45:54;;;;;;;11.80;6.72;;;;;;;5.88;68.71;101671.88;6361376;27;20056;-78
2023/02/12 09:49:10;;;;;;;9.73;5.18;;;;;;;6.13;67.66;101687.91;6348845;28;20067;-78
2023/02/12 09:52:18;;;;;;;14.00;6.55;;;;;;;6.43;67.58;101689.13;6348898;28;20036;-78
2023/02/12 09:55:20;;;;;;;11.82;6.60;;;;;;;6.27;67.34;101686.84;6359483;27;20414;-78
2023/02/12 09:58:45;;;;;;;10.32;5.68;;;;;;;6.26;67.56;101683.41;6374184;27;20068;-78
2023/02/12 10:01:46;;;;;;;15.38;5.63;;;;;;;6.65;66.61;101689.59;6374129;27;20053;-78
2023/02/12 10:04:48;;;;;;;6.57;4.13;;;;;;;6.36;66.96;101695.31;6367247;27;20040;-78
2023/02/12 10:08:26;;;;;;;9.10;5.03;;;;;;;6.47;66.25;101697.72;6348393;28;20044;-78
2023/02/12 10:11:44;;;;;;;11.70;6.38;;;;;;;6.84;65.24;101705.66;6348538;28;20495;-78
2023/02/12 10:15:03;;;;;;;14.35;6.22;;;;;;;6.58;66.01;101708.75;6349828;28;20088;-78
2023/02/12 10:18:43;;;;;;;13.98;7.43;;;;;;;6.71;64.88;101708.53;6348316;28;20093;-78
2023/02/12 10:21:44;;;;;;;12.30;5.38;;;;;;;6.42;64.69;101709.91;6353446;27;20061;-78
2023/02/12 10:25:03;;;;;;;9.10;6.18;;;;;;;6.88;64.80;101705.59;6357379;27;20576;-78
2023/02/12 10:28:13;;;;;;;6.10;3.60;;;;;;;6.72;63.97;101713.69;6369034;27;20067;-78
2023/02/12 10:31:36;;;;;;;13.85;5.85;;;;;;;6.99;62.91;101701.91;6369270;27;20055;-78
2023/02/12 10:34:37;;;;;;;13.07;5.50;;;;;;;7.15;63.45;101712.84;6369930;27;20437;-78
2023/02/12 10:37:48;;;;;;;11.80;5.32;;;;;;;7.15;60.35;101701.63;6356663;27;20036;-78
2023/02/12 10:40:56;;;;;;;;;;;;;;;7.00;59.86;101703.66;6349315;28;20123;-78
2023/02/12 10:43:57;;;;;;;9.77;3.83;;;;;;;6.99;59.69;101693.28;6347995;28;20367;-78
2023/02/12 10:46:58;;;;;;;9.13;3.97;;;;;;;7.33;58.47;101690.84;6348867;28;20093;-78
2023/02/12 10:50:01;;;;;;;9.82;4.50;;;;;;;7.55;58.31;101695.56;6348524;28;20066;-78
2023/02/12 10:53:04;;;;;;;6.72;4.07;;;;;;;7.35;56.76;101696.00;6348449;28;20063;-78
2023/02/12 10:56:16;;;;;;;7.13;4.15;;;;;;;7.54;57.75;101706.88;6347174;28;20036;-78
2023/02/12 10:59:23;;;;;;;7.93;4.65;;;;;;;7.63;56.88;101701.44;6348186;28;20043;-78
2023/02/12 11:02:32;;;;;;;8.27;4.60;;;;;;;7.65;56.46;101697.91;6347136;28;20470;-78
2023/02/12 11:05:36;;;;;;;12.63;4.47;;;;;;;7.61;56.25;101704.06;6346999;28;20050;-78
2023/02/12 11:08:40;;;;;;;9.18;4.65;;;;;;;7.78;55.83;101701.13;6348957;27;20039;-79
2023/02/12 11:11:40;;;;;;;12.63;3.75;;;;;;;7.00;54.87;101711.44;6373551;27;20410;-79
2023/02/12 11:14:58;;;;;;;9.55;5.72;;;;;;;7.29;55.92;101730.75;6367969;27;20101;-79
2023/02/12 11:18:01;;;;;;;5.15;3.55;;;;;;;7.37;56.22;101727.97;6347871;28;20546;-78
2023/02/12 11:21:06;;;;;;;6.30;3.05;;;;;;;7.11;55.29;101731.97;6346428;28;20502;-79
2023/02/12 11:24:25;;;;;;;8.57;4.95;;;;;;;7.44;54.67;101732.16;6346507;28;20411;-79
2023/02/12 11:27:29;;;;;;;7.72;4.57;;;;;;;7.23;55.13;101730.88;6351838;27;20048;-79
2023/02/12 11:30:35;;;;;;;10.68;4.68;;;;;;;7.15;56.01;101731.03;6369120;27;20047;-79
2023/02/12 11:33:37;;;;;;;8.32;4.47;;;;;;;7.18;54.10;101741.34;6371875;27;20042;-79
2023/02/12 11:36:48;;;;;;;7.72;2.65;;;;;;;7.18;54.00;101720.56;6371981;27;20043;-79
2023/02/12 11:39:50;;;;;;;3.65;2.80;;;;;;;7.23;54.32;101733.47;6372686;27;20501;-79
2023/02/12 11:43:04;;;;;;;4.22;3.22;;;;;;;7.31;54.61;101731.59;6372924;27;20045;-79
2023/02/12 11:46:07;;;;;;;10.07;3.08;;;;;;;7.01;53.62;101739.06;6371384;27;20073;-79
2023/02/12 11:49:29;;;;;;;5.68;3.53;;;;;;;7.16;53.47;101747.44;6371222;27;20043;-79
2023/02/12 11:52:35;;;;;;;5.78;3.30;;;;;;;7.19;53.66;101760.38;6365249;27;20089;-76
2023/02/12 11:55:40;;;;;;;6.82;2.70;;;;;;;6.88;51.42;101753.19;6372401;27;20043;-76
2023/02/12 11:58:41;;;;;;;5.15;2.20;;;;;;;7.01;51.68;101746.88;6371388;27;20050;-79
2023/02/12 12:01:42;;;;;;;4.35;2.17;;;;;;;7.08;50.37;101742.41;6372504;27;20079;-79
2023/02/12 12:04:48;;;;;;;4.70;2.47;;;;;;;6.78;50.65;101733.47;6369342;27;20043;-76
2023/02/12 12:07:56;;;;;;;8.15;3.60;;;;;;;6.76;51.62;101725.72;6371471;27;20119;-76
2023/02/12 12:11:13;;;;;;;6.65;2.45;;;;;;;6.97;50.54;101745.22;6363991;27;20046;-78
2023/02/12 12:14:26;;;;;;;7.13;2.50;;;;;;;7.16;50.47;101731.88;6366166;27;20043;-76
2023/02/12 12:21:08;;;;;;;4.72;2.03;;;;;;;6.69;50.75;101718.91;6358373;28;20132;-79
2023/02/12 12:24:29;;;;;;;4.10;2.13;;;;;;;7.03;51.73;101713.94;6351704;28;20052;-79
2023/02/12 12:28:06;;;;;;;3.80;2.63;;;;;;;7.01;51.75;101714.88;6372319;27;20043;-75
2023/02/12 12:31:11;;;;;;;4.07;2.30;;;;;;;6.83;51.32;101711.72;6360843;28;20053;-76
2023/02/12 12:34:16;;;;;;;6.72;3.60;;;;;;;7.28;51.80;101720.41;6371724;27;20470;-75
2023/02/12 12:37:36;;;;;;;4.82;2.78;;;;;;;6.86;52.25;101732.44;6370977;28;20050;-79
2023/02/12 12:40:42;;;;;;;3.92;2.35;;;;;;;7.16;53.21;101732.72;6371889;27;20039;-79
2023/02/12 12:44:04;;;;;;;5.13;1.92;;;;;;;7.25;51.79;101740.34;6372156;28;20500;-78
2023/02/12 12:47:11;;;;;;;;;;;;;;;7.34;53.37;101735.84;6372458;27;20049;-78
2023/02/12 12:50:31;;;;;;;3.53;1.58;;;;;;;7.31;52.05;101749.75;6370335;28;20018;-78
2023/02/12 12:53:48;;;;;;;5.88;3.10;;;;;;;7.20;52.55;101749.09;6370811;28;20440;-78
2023/02/12 12:56:57;;;;;;;7.07;2.58;;;;;;;7.29;52.14;101753.25;6365375;27;20043;-78
2023/02/12 13:00:46;;;;;;;5.75;3.60;;;;;;;7.07;54.38;101748.50;6344915;28;20406;-78
2023/02/12 13:04:12;;;;;;;8.02;4.00;;;;;;;7.24;53.46;101742.97;6298299;28;20045;-78
2023/02/12 13:07:35;;;;;;;4.82;3.55;;;;;;;6.74;54.92;101742.19;6347060;28;20036;-78
2023/02/12 13:10:45;;;;;;;4.78;2.97;;;;;;;6.98;54.48;101752.13;6349860;28;20059;-78
2023/02/12 13:13:49;;;;;;;4.40;2.55;;;;;;;6.76;52.84;101753.41;6351088;28;20047;-78
2023/02/12 13:17:11;;;;;;;3.88;2.28;;;;;;;6.90;52.52;101759.19;6367622;27;20150;-78
2023/02/12 13:20:17;;;;;;;10.52;4.00;;;;;;;7.09;52.64;101761.44;6374559;27;20092;-75
2023/02/12 13:23:33;;;;;;;6.63;3.78;;;;;;;7.07;52.13;101757.13;6374792;27;20387;-75
2023/02/12 13:26:55;;;;;;;4.15;2.53;;;;;;;6.90;52.78;101761.78;6374739;27;20063;-76
2023/02/12 13:30:16;;;;;;;1.60;1.30;;;;;;;6.76;52.83;101754.25;6374611;27;20481;-75
2023/02/12 13:33:25;;;;;;;4.72;2.67;;;;;;;6.86;52.92;101753.19;6376741;27;20047;-75
2023/02/12 13:36:26;;;;;;;5.90;3.20;;;;;;;7.08;54.19;101757.97;6376610;27;20050;-76
2023/02/12 13:39:30;;;;;;;5.13;2.28;;;;;;;6.80;53.77;101757.66;6374406;27;20103;-76
2023/02/12 13:42:39;;;;;;;3.33;2.08;;;;;;;6.58;52.14;101752.00;6362143;27;20063;-75
2023/02/12 13:46:32;;;;;;;2.03;1.55;;;;;;;6.76;52.96;101763.78;6359309;27;20059;-77
2023/02/12 13:49:52;;;;;;;4.10;2.28;;;;;;;6.82;52.69;101761.94;6309080;28;20055;-77
2023/02/12 13:53:22;;;;;;;1.88;1.58;;;;;;;6.44;51.89;101767.78;6349717;28;20047;-77
2023/02/12 13:56:40;;;;;;;2.15;1.90;;;;;;;6.39;52.21;101769.59;6349449;28;20047;-77
2023/02/12 13:59:46;;;;;;;1.13;1.00;;;;;;;6.39;52.35;101772.19;6383770;27;20051;-75
2023/02/12 14:02:50;;;;;;;3.17;2.03;;;;;;;6.37;51.74;101776.53;6350183;28;20040;-76
2023/02/12 14:06:11;;;;;;;5.72;1.77;;;;;;;6.20;51.79;101784.59;6350295;28;20066;-75
2023/02/12 14:09:22;;;;;;;3.90;2.42;;;;;;;5.85;51.94;101785.94;6350172;28;20046;-75
2023/02/12 14:12:23;;;;;;;4.07;1.52;;;;;;;6.00;52.04;101785.72;6349016;28;20176;-75
2023/02/12 14:15:29;;;;;;;1.65;1.27;;;;;;;6.03;52.09;101790.88;6350406;28;20043;-77
2023/02/12 14:18:34;;;;;;;1.60;1.30;;;;;;;5.76;51.51;101786.03;6350116;28;20376;-77
2023/02/12 14:21:37;;;;;;;1.15;0.90;;;;;;;5.67;52.37;101787.00;6348737;28;20092;-77
2023/02/12 14:24:51;;;;;;;3.75;1.27;;;;;;;5.79;52.62;101786.00;6350143;28;20108;-77
2023/02/12 14:27:56;;;;;;;1.48;1.15;;;;;;;5.74;52.56;101790.38;6348699;28;20375;-77
2023/02/12 14:31:19;;;;;;;1.13;0.77;;;;;;;5.44;52.35;101793.34;6349834;28;20479;-77
2023/02/12 14:34:20;;;;;;;2.17;1.70;;;;;;;5.46;51.64;101785.56;6349762;28;20050;-77
2023/02/12 14:37:33;;;;;;;2.10;1.30;;;;;;;5.42;52.92;101791.66;6363210;27;20043;-77
2023/02/12 14:40:35;;;;;;;1.42;1.33;;;;;;;5.29;53.94;101800.41;6372895;27;20055;-77
2023/02/12 14:47:04;;;;;;;1.70;0.88;;;;;;;4.92;53.10;101800.78;6374609;27;20047;-77
2023/02/12 14:50:22;;;;;;;9.10;1.30;;;;;;;4.67;54.26;101795.84;6368910;27;20068;-77
2023/02/12 14:53:34;;;;;;;2.70;1.33;;;;;;;4.61;54.52;101806.25;6372900;27;20091;-77
2023/02/12 14:56:44;;;;;;;5.03;2.78;;;;;;;4.37;55.31;101791.81;6372798;27;20497;-77
2023/02/12 14:59:50;;;;;;;3.65;2.15;;;;;;;4.48;55.49;101789.97;6373673;27;20051;-77